createdAt,value
2023-03-27T00:00:05.526Z,69.85
2023-03-27T00:01:05.458Z,69.85
2023-03-27T00:02:05.517Z,69.83
2023-03-27T00:03:05.571Z,69.85
2023-03-27T00:04:06.460Z,69.85
2023-03-27T00:05:05.432Z,69.85
2023-03-27T00:06:05.412Z,69.86
2023-03-27T00:07:05.388Z,69.88
2023-03-27T00:08:06.385Z,69.90
2023-03-27T00:09:06.349Z,69.91
2023-03-27T00:10:05.436Z,69.92
2023-03-27T00:11:05.334Z,69.92
2023-03-27T00:12:05.326Z,69.95
2023-03-27T00:13:05.321Z,69.97
2023-03-27T00:14:06.301Z,69.97
2023-03-27T00:15:05.285Z,69.98
2023-03-27T00:16:05.295Z,69.99
2023-03-27T00:17:05.345Z,70.01
2023-03-27T00:18:05.296Z,70.03
2023-03-27T00:19:06.162Z,70.08
2023-03-27T00:20:05.282Z,70.08
2023-03-27T00:21:05.231Z,70.11
2023-03-27T00:22:05.188Z,70.13
2023-03-27T00:23:05.185Z,70.15
2023-03-27T00:24:06.113Z,70.18
2023-03-27T00:25:06.081Z,70.17
2023-03-27T00:26:05.171Z,70.17
2023-03-27T00:27:05.181Z,70.16
2023-03-27T00:28:05.155Z,70.13
2023-03-27T00:29:05.099Z,70.13
2023-03-27T00:30:05.994Z,70.10
2023-03-27T00:31:05.124Z,70.09
2023-03-27T00:32:05.046Z,70.08
2023-03-27T00:33:05.046Z,70.09
2023-03-27T00:34:05.026Z,70.08
2023-03-27T00:35:05.058Z,70.10
2023-03-27T00:36:06.000Z,70.10
2023-03-27T00:37:05.077Z,70.08
2023-03-27T00:38:05.000Z,70.09
2023-03-27T00:39:04.984Z,70.09
2023-03-27T00:40:05.040Z,70.09
2023-03-27T00:41:05.897Z,70.10
2023-03-27T00:42:04.921Z,70.13
2023-03-27T00:43:04.935Z,70.15
2023-03-27T00:44:04.886Z,70.14
2023-03-27T00:45:04.922Z,70.15
2023-03-27T00:46:05.850Z,70.18
2023-03-27T00:47:04.899Z,70.17
2023-03-27T00:48:04.986Z,70.17
2023-03-27T00:49:04.850Z,70.16
2023-03-27T00:50:04.819Z,70.15
2023-03-27T00:51:04.826Z,70.15
2023-03-27T00:52:05.755Z,70.14
2023-03-27T00:53:04.794Z,70.11
2023-03-27T00:54:04.758Z,70.11
2023-03-27T00:55:04.793Z,70.07
2023-03-27T00:56:04.738Z,70.05
2023-03-27T00:57:05.704Z,70.04
2023-03-27T00:58:04.721Z,70.03
2023-03-27T00:59:04.762Z,70.03
2023-03-27T01:00:04.707Z,70.04
2023-03-27T01:01:04.702Z,70.06
2023-03-27T01:02:05.598Z,70.05
2023-03-27T01:03:04.833Z,70.05
2023-03-27T01:04:04.660Z,70.03
2023-03-27T01:05:05.602Z,70.02
2023-03-27T01:06:04.670Z,70.02
2023-03-27T01:07:04.587Z,70.02
2023-03-27T01:08:05.544Z,70.02
2023-03-27T01:09:04.679Z,70.01
2023-03-27T01:10:04.582Z,70.02
2023-03-27T01:11:04.619Z,70.00
2023-03-27T01:12:04.520Z,70.00
2023-03-27T01:13:05.552Z,70.00
2023-03-27T01:14:04.556Z,69.99
2023-03-27T01:15:04.559Z,70.03
2023-03-27T01:16:04.586Z,70.02
2023-03-27T01:17:04.450Z,70.02
2023-03-27T01:18:05.501Z,69.99
2023-03-27T01:19:04.508Z,69.98
2023-03-27T01:20:04.502Z,69.97
2023-03-27T01:21:04.468Z,69.97
2023-03-27T01:22:04.470Z,69.97
2023-03-27T01:23:05.338Z,69.96
2023-03-27T01:24:04.388Z,69.97
2023-03-27T01:25:04.432Z,69.96
2023-03-27T01:26:04.494Z,69.96
2023-03-27T01:27:04.423Z,69.96
2023-03-27T01:28:05.254Z,69.94
2023-03-27T01:29:04.309Z,69.94
2023-03-27T01:30:04.422Z,69.92
2023-03-27T01:31:04.326Z,69.92
2023-03-27T01:32:04.351Z,69.90
2023-03-27T01:33:04.318Z,69.87
2023-03-27T01:34:05.477Z,69.87
2023-03-27T01:35:04.307Z,69.83
2023-03-27T01:36:04.342Z,69.82
2023-03-27T01:37:04.243Z,69.82
2023-03-27T01:38:04.191Z,69.80
2023-03-27T01:39:04.177Z,69.82
2023-03-27T01:40:05.228Z,69.82
2023-03-27T01:41:04.185Z,69.80
2023-03-27T01:42:04.204Z,69.76
2023-03-27T01:43:04.198Z,69.74
2023-03-27T01:44:04.154Z,69.72
2023-03-27T01:45:04.105Z,69.70
2023-03-27T01:46:05.097Z,69.70
2023-03-27T01:47:04.319Z,69.70
2023-03-27T01:48:04.133Z,69.70
2023-03-27T01:49:04.056Z,69.69
2023-03-27T01:50:04.923Z,69.66
2023-03-27T01:51:05.014Z,69.64
2023-03-27T01:52:04.036Z,69.61
2023-03-27T01:53:04.017Z,69.57
2023-03-27T01:54:04.028Z,69.55
2023-03-27T01:55:03.985Z,69.53
2023-03-27T01:56:03.978Z,69.53
2023-03-27T01:57:04.966Z,69.48
2023-03-27T01:58:03.978Z,69.48
2023-03-27T01:59:04.824Z,69.50
2023-03-27T02:00:18.563Z,69.50
2023-03-27T02:01:05.789Z,69.52
2023-03-27T02:02:03.926Z,69.53
2023-03-27T02:03:04.955Z,69.52
2023-03-27T02:04:03.903Z,69.53
2023-03-27T02:05:03.919Z,69.54
2023-03-27T02:06:03.859Z,69.54
2023-03-27T02:07:03.832Z,69.52
2023-03-27T02:08:03.804Z,69.54
2023-03-27T02:09:04.810Z,69.56
2023-03-27T02:10:03.807Z,69.56
2023-03-27T02:11:03.768Z,69.58
2023-03-27T02:12:03.773Z,69.58
2023-03-27T02:13:03.726Z,69.59
2023-03-27T02:14:03.783Z,69.58
2023-03-27T02:15:23.780Z,69.57
2023-03-27T02:16:05.230Z,69.58
2023-03-27T02:17:03.720Z,69.55
2023-03-27T02:18:03.725Z,69.53
2023-03-27T02:19:03.731Z,69.52
2023-03-27T02:20:04.610Z,69.52
2023-03-27T02:21:03.951Z,69.51
2023-03-27T02:22:03.656Z,69.50
2023-03-27T02:23:03.620Z,69.50
2023-03-27T02:24:03.582Z,69.48
2023-03-27T02:25:04.512Z,69.44
2023-03-27T02:26:04.498Z,69.42
2023-03-27T02:27:03.573Z,69.40
2023-03-27T02:28:03.566Z,69.36
2023-03-27T02:29:03.515Z,69.36
2023-03-27T02:30:03.495Z,69.34
2023-03-27T02:31:31.065Z,69.34
2023-03-27T02:32:04.586Z,69.32
2023-03-27T02:33:03.556Z,69.32
2023-03-27T02:34:03.462Z,69.30
2023-03-27T02:35:03.491Z,69.29
2023-03-27T02:36:04.401Z,69.29
2023-03-27T02:37:03.470Z,69.30
2023-03-27T02:38:03.500Z,69.29
2023-03-27T02:39:03.412Z,69.30
2023-03-27T02:40:03.377Z,69.31
2023-03-27T02:41:03.390Z,69.30
2023-03-27T02:42:04.304Z,69.31
2023-03-27T02:43:03.637Z,69.33
2023-03-27T02:44:03.313Z,69.37
2023-03-27T02:45:03.418Z,69.41
2023-03-27T02:46:03.345Z,69.43
2023-03-27T02:47:03.327Z,69.45
2023-03-27T02:48:04.333Z,69.46
2023-03-27T02:49:03.315Z,69.47
2023-03-27T02:50:03.285Z,69.46
2023-03-27T02:51:03.267Z,69.48
2023-03-27T02:52:03.281Z,69.48
2023-03-27T02:53:04.155Z,69.49
2023-03-27T02:54:03.211Z,69.49
2023-03-27T02:55:03.204Z,69.48
2023-03-27T02:56:03.157Z,69.49
2023-03-27T02:57:03.239Z,69.52
2023-03-27T02:58:03.269Z,69.54
2023-03-27T02:59:04.144Z,69.58
2023-03-27T03:00:03.133Z,69.59
2023-03-27T03:01:03.157Z,69.61
2023-03-27T03:02:03.143Z,69.59
2023-03-27T03:03:03.198Z,69.58
2023-03-27T03:04:03.073Z,69.60
2023-03-27T03:05:04.018Z,69.58
2023-03-27T03:06:03.091Z,69.58
2023-03-27T03:07:03.039Z,69.59
2023-03-27T03:08:03.027Z,69.58
2023-03-27T03:09:03.048Z,69.58
2023-03-27T03:10:03.024Z,69.55
2023-03-27T03:11:03.942Z,69.52
2023-03-27T03:12:02.950Z,69.46
2023-03-27T03:13:02.961Z,69.43
2023-03-27T03:14:02.968Z,69.42
2023-03-27T03:15:03.005Z,69.39
2023-03-27T03:16:02.901Z,69.38
2023-03-27T03:17:03.860Z,69.37
2023-03-27T03:18:03.010Z,69.38
2023-03-27T03:19:03.792Z,69.35
2023-03-27T03:20:02.907Z,69.36
2023-03-27T03:21:02.873Z,69.36
2023-03-27T03:22:03.748Z,69.36
2023-03-27T03:23:02.885Z,69.37
2023-03-27T03:24:02.806Z,69.39
2023-03-27T03:25:02.880Z,69.42
2023-03-27T03:26:02.796Z,69.43
2023-03-27T03:27:03.698Z,69.48
2023-03-27T03:28:02.774Z,69.48
2023-03-27T03:29:02.792Z,69.52
2023-03-27T03:30:02.769Z,69.54
2023-03-27T03:31:02.797Z,69.52
2023-03-27T03:32:03.648Z,69.53
2023-03-27T03:33:02.798Z,69.53
2023-03-27T03:34:02.686Z,69.51
2023-03-27T03:35:02.764Z,69.51
2023-03-27T03:36:02.683Z,69.50
2023-03-27T03:37:02.665Z,69.50
2023-03-27T03:38:03.598Z,69.51
2023-03-27T03:39:02.613Z,69.51
2023-03-27T03:40:02.600Z,69.54
2023-03-27T03:41:02.583Z,69.56
2023-03-27T03:42:02.572Z,69.56
2023-03-27T03:43:02.564Z,69.60
2023-03-27T03:44:04.457Z,69.62
2023-03-27T03:45:02.516Z,69.66
2023-03-27T03:46:02.534Z,69.69
2023-03-27T03:47:02.585Z,69.69
2023-03-27T03:48:02.581Z,69.73
2023-03-27T03:49:02.493Z,69.73
2023-03-27T03:50:03.422Z,69.75
2023-03-27T03:51:02.421Z,69.76
2023-03-27T03:52:04.304Z,69.77
2023-03-27T03:53:02.421Z,69.77
2023-03-27T03:54:02.503Z,69.79
2023-03-27T03:55:03.362Z,69.80
2023-03-27T03:56:02.386Z,69.82
2023-03-27T03:57:02.398Z,69.84
2023-03-27T03:58:02.444Z,69.85
2023-03-27T03:59:02.458Z,69.86
2023-03-27T04:00:03.252Z,69.89
2023-03-27T04:01:02.351Z,69.90
2023-03-27T04:02:02.348Z,69.92
2023-03-27T04:03:02.374Z,69.94
2023-03-27T04:04:02.316Z,69.98
2023-03-27T04:05:08.848Z,70.01
2023-03-27T04:06:04.735Z,70.03
2023-03-27T04:07:03.212Z,70.03
2023-03-27T04:08:02.352Z,70.02
2023-03-27T04:09:02.239Z,70.03
2023-03-27T04:10:02.188Z,70.05
2023-03-27T04:11:02.180Z,70.06
2023-03-27T04:12:03.097Z,70.05
2023-03-27T04:13:02.153Z,70.07
2023-03-27T04:14:02.193Z,70.06
2023-03-27T04:15:02.206Z,70.07
2023-03-27T04:16:02.202Z,70.05
2023-03-27T04:17:02.107Z,70.05
2023-03-27T04:18:03.115Z,70.06
2023-03-27T04:19:02.108Z,70.07
2023-03-27T04:20:02.157Z,70.11
2023-03-27T04:21:02.062Z,70.14
2023-03-27T04:22:02.065Z,70.14
2023-03-27T04:23:02.054Z,70.16
2023-03-27T04:24:03.032Z,70.19
2023-03-27T04:25:02.015Z,70.20
2023-03-27T04:26:02.167Z,70.21
2023-03-27T04:27:01.966Z,70.22
2023-03-27T04:28:01.988Z,70.19
2023-03-27T04:29:01.972Z,70.18
2023-03-27T04:30:02.937Z,70.19
2023-03-27T04:31:02.008Z,70.19
2023-03-27T04:32:01.965Z,70.19
2023-03-27T04:33:01.987Z,70.19
2023-03-27T04:34:01.913Z,70.19
2023-03-27T04:35:02.821Z,70.18
2023-03-27T04:36:07.388Z,70.17
2023-03-27T04:37:03.338Z,70.15
2023-03-27T04:38:02.886Z,70.16
2023-03-27T04:39:01.820Z,70.17
2023-03-27T04:40:01.858Z,70.18
2023-03-27T04:41:02.731Z,70.20
2023-03-27T04:42:01.772Z,70.21
2023-03-27T04:43:01.772Z,70.21
2023-03-27T04:44:01.826Z,70.25
2023-03-27T04:45:01.761Z,70.25
2023-03-27T04:46:01.737Z,70.25
2023-03-27T04:47:02.724Z,70.24
2023-03-27T04:48:01.776Z,70.26
2023-03-27T04:49:01.694Z,70.26
2023-03-27T04:50:01.704Z,70.23
2023-03-27T04:51:01.681Z,70.19
2023-03-27T04:52:01.675Z,70.18
2023-03-27T04:53:02.608Z,70.18
2023-03-27T04:54:01.678Z,70.18
2023-03-27T04:55:01.648Z,70.20
2023-03-27T04:56:01.662Z,70.16
2023-03-27T04:57:01.835Z,70.15
2023-03-27T04:58:03.497Z,70.16
2023-03-27T04:59:01.564Z,70.17
2023-03-27T05:00:01.570Z,70.15
2023-03-27T05:01:01.796Z,70.14
2023-03-27T05:02:01.671Z,70.12
2023-03-27T05:03:01.596Z,70.11
2023-03-27T05:04:02.638Z,70.08
2023-03-27T05:05:01.493Z,70.08
2023-03-27T05:06:01.500Z,70.04
2023-03-27T05:07:01.448Z,70.04
2023-03-27T05:08:01.433Z,70.04
2023-03-27T05:09:01.518Z,70.00
2023-03-27T05:10:02.387Z,70.00
2023-03-27T05:11:01.389Z,69.99
2023-03-27T05:12:01.411Z,69.98
2023-03-27T05:13:01.417Z,69.97
2023-03-27T05:14:01.370Z,69.94
2023-03-27T05:15:01.346Z,69.94
2023-03-27T05:16:02.318Z,69.93
2023-03-27T05:17:01.350Z,69.88
2023-03-27T05:18:01.440Z,69.86
2023-03-27T05:19:01.306Z,69.86
2023-03-27T05:20:01.303Z,69.86
2023-03-27T05:21:02.236Z,69.85
2023-03-27T05:22:02.247Z,69.84
2023-03-27T05:23:01.316Z,69.84
2023-03-27T05:24:01.262Z,69.87
2023-03-27T05:25:01.244Z,69.86
2023-03-27T05:26:02.162Z,69.84
2023-03-27T05:27:01.230Z,69.80
2023-03-27T05:28:01.251Z,69.77
2023-03-27T05:29:01.218Z,69.73
2023-03-27T05:30:01.180Z,69.70
2023-03-27T05:31:01.314Z,69.68
2023-03-27T05:32:02.155Z,69.66
2023-03-27T05:33:01.247Z,69.63
2023-03-27T05:34:01.133Z,69.64
2023-03-27T05:35:01.172Z,69.61
2023-03-27T05:36:01.162Z,69.58
2023-03-27T05:37:01.115Z,69.57
2023-03-27T05:38:02.005Z,69.55
2023-03-27T05:39:01.118Z,69.55
2023-03-27T05:40:01.358Z,69.54
2023-03-27T05:41:01.100Z,69.50
2023-03-27T05:42:01.962Z,69.48
2023-03-27T05:43:01.047Z,69.47
2023-03-27T05:44:01.916Z,69.43
2023-03-27T05:45:00.998Z,69.43
2023-03-27T05:46:01.023Z,69.41
2023-03-27T05:47:00.957Z,69.39
2023-03-27T05:48:00.972Z,69.37
2023-03-27T05:49:01.855Z,69.37
2023-03-27T05:50:00.943Z,69.34
2023-03-27T05:51:00.921Z,69.33
2023-03-27T05:52:00.899Z,69.28
2023-03-27T05:53:00.875Z,69.24
2023-03-27T05:54:00.898Z,69.18
2023-03-27T05:55:01.879Z,69.14
2023-03-27T05:56:03.151Z,69.09
2023-03-27T05:57:00.862Z,68.99
2023-03-27T05:58:00.832Z,68.88
2023-03-27T05:59:00.868Z,68.79
2023-03-27T06:00:01.754Z,68.69
2023-03-27T06:01:00.809Z,68.56
2023-03-27T06:02:00.787Z,68.44
2023-03-27T06:03:00.793Z,68.36
2023-03-27T06:04:00.832Z,68.27
2023-03-27T06:05:00.736Z,68.18
2023-03-27T06:06:01.655Z,68.08
2023-03-27T06:07:00.692Z,67.95
2023-03-27T06:08:00.684Z,67.86
2023-03-27T06:09:00.704Z,67.75
2023-03-27T06:10:00.704Z,67.67
2023-03-27T06:11:00.641Z,67.55
2023-03-27T06:12:01.571Z,67.40
2023-03-27T06:13:00.638Z,67.30
2023-03-27T06:14:00.646Z,67.18
2023-03-27T06:15:00.712Z,67.10
2023-03-27T06:16:00.914Z,67.06
2023-03-27T06:17:01.511Z,67.06
2023-03-27T06:18:01.619Z,67.02
2023-03-27T06:19:00.582Z,66.98
2023-03-27T06:20:00.555Z,66.93
2023-03-27T06:21:00.581Z,66.90
2023-03-27T06:22:00.515Z,66.89
2023-03-27T06:23:01.488Z,66.83
2023-03-27T06:24:01.383Z,66.80
2023-03-27T06:25:00.479Z,66.74
2023-03-27T06:26:00.457Z,66.63
2023-03-27T06:27:00.472Z,66.59
2023-03-27T06:28:01.398Z,66.54
2023-03-27T06:29:00.430Z,66.51
2023-03-27T06:30:02.785Z,66.44
2023-03-27T06:31:00.395Z,66.39
2023-03-27T06:32:00.348Z,66.33
2023-03-27T06:33:00.458Z,66.19
2023-03-27T06:34:01.324Z,65.81
2023-03-27T06:35:00.328Z,65.31
2023-03-27T06:36:00.963Z,64.89
2023-03-27T06:37:00.317Z,64.74
2023-03-27T06:38:00.604Z,64.65
2023-03-27T06:39:01.392Z,64.72
2023-03-27T06:40:00.329Z,64.91
2023-03-27T06:41:00.247Z,65.07
2023-03-27T06:42:00.259Z,65.15
2023-03-27T06:43:00.225Z,65.06
2023-03-27T06:44:01.165Z,65.00
2023-03-27T06:45:00.208Z,64.99
2023-03-27T06:46:00.309Z,64.93
2023-03-27T06:47:00.267Z,64.87
2023-03-27T06:48:13.810Z,64.85
2023-03-27T06:49:02.577Z,64.82
2023-03-27T06:50:00.212Z,64.79
2023-03-27T06:51:00.293Z,64.81
2023-03-27T06:52:00.287Z,64.95
2023-03-27T06:53:00.109Z,65.10
2023-03-27T06:54:00.127Z,65.22
2023-03-27T06:55:01.048Z,65.32
2023-03-27T06:56:00.274Z,65.36
2023-03-27T06:57:00.169Z,65.29
2023-03-27T06:58:00.139Z,65.22
2023-03-27T06:59:00.904Z,65.19
2023-03-27T07:00:02.285Z,65.05
2023-03-27T07:01:00.946Z,64.98
2023-03-27T07:02:00.898Z,64.96
2023-03-27T07:03:00.056Z,64.85
2023-03-27T07:03:59.951Z,64.72
2023-03-27T07:05:07.416Z,64.66
2023-03-27T07:06:03.580Z,64.73
2023-03-27T07:06:59.948Z,64.83
2023-03-27T07:08:05.474Z,64.85
2023-03-27T07:09:01.414Z,64.94
2023-03-27T07:09:59.899Z,64.67
2023-03-27T07:11:10.594Z,64.44
2023-03-27T07:12:02.337Z,64.30
2023-03-27T07:12:59.866Z,64.20
2023-03-27T07:13:59.921Z,64.12
2023-03-27T07:14:59.845Z,64.01
2023-03-27T07:16:00.806Z,63.94
2023-03-27T07:17:00.776Z,63.83
2023-03-27T07:17:59.827Z,63.76
2023-03-27T07:19:02.234Z,63.65
2023-03-27T07:19:59.831Z,63.37
2023-03-27T07:21:00.225Z,62.99
2023-03-27T07:22:00.663Z,62.84
2023-03-27T07:22:59.786Z,62.80
2023-03-27T07:23:59.817Z,62.57
2023-03-27T07:24:59.728Z,62.37
2023-03-27T07:25:59.866Z,62.25
2023-03-27T07:26:59.658Z,62.11
2023-03-27T07:28:00.631Z,62.09
2023-03-27T07:29:00.604Z,62.10
2023-03-27T07:29:59.669Z,62.15
2023-03-27T07:30:59.878Z,62.18
2023-03-27T07:32:02.856Z,62.08
2023-03-27T07:33:01.134Z,61.96
2023-03-27T07:34:00.596Z,61.69
2023-03-27T07:34:59.567Z,61.43
2023-03-27T07:35:59.712Z,61.32
2023-03-27T07:36:59.576Z,61.57
2023-03-27T07:37:59.569Z,61.93
2023-03-27T07:38:59.527Z,61.84
2023-03-27T07:40:00.410Z,61.41
2023-03-27T07:40:59.484Z,61.19
2023-03-27T07:41:59.465Z,61.14
2023-03-27T07:42:59.466Z,61.07
2023-03-27T07:43:59.569Z,60.68
2023-03-27T07:45:01.787Z,59.89
2023-03-27T07:45:59.783Z,59.34
2023-03-27T07:46:59.415Z,59.47
2023-03-27T07:47:59.462Z,59.60
2023-03-27T07:48:59.362Z,59.46
2023-03-27T07:49:59.382Z,59.56
2023-03-27T07:51:10.868Z,60.25
2023-03-27T07:52:00.848Z,60.45
2023-03-27T07:52:59.421Z,60.85
2023-03-27T07:53:59.390Z,61.07
2023-03-27T07:55:00.295Z,61.41
2023-03-27T07:56:00.695Z,61.79
2023-03-27T07:57:00.348Z,62.01
2023-03-27T07:58:02.517Z,61.93
2023-03-27T07:58:59.278Z,61.72
2023-03-27T07:59:59.256Z,61.68
2023-03-27T08:00:59.243Z,61.03
2023-03-27T08:02:00.149Z,61.10
2023-03-27T08:02:59.507Z,61.59
2023-03-27T08:03:59.547Z,61.98
2023-03-27T08:04:59.383Z,62.09
2023-03-27T08:05:59.326Z,62.13
2023-03-27T08:07:00.104Z,62.01
2023-03-27T08:07:59.141Z,61.98
2023-03-27T08:08:59.763Z,62.20
2023-03-27T08:09:59.100Z,62.38
2023-03-27T08:10:59.147Z,62.30
2023-03-27T08:11:59.128Z,62.48
2023-03-27T08:13:00.051Z,62.45
2023-03-27T08:13:59.167Z,62.43
2023-03-27T08:14:59.041Z,62.27
2023-03-27T08:15:59.028Z,61.58
2023-03-27T08:17:14.447Z,61.99
2023-03-27T08:18:01.526Z,62.47
2023-03-27T08:18:59.029Z,62.65
2023-03-27T08:19:59.970Z,62.29
2023-03-27T08:20:58.987Z,61.34
2023-03-27T08:21:59.000Z,60.58
2023-03-27T08:22:59.893Z,60.48
2023-03-27T08:23:58.965Z,60.74
2023-03-27T08:24:58.943Z,60.92
2023-03-27T08:25:58.936Z,60.91
2023-03-27T08:26:58.886Z,60.85
2023-03-27T08:27:58.858Z,60.07
2023-03-27T08:28:59.878Z,59.97
2023-03-27T08:29:58.857Z,60.02
2023-03-27T08:31:02.676Z,60.12
2023-03-27T08:31:58.848Z,60.38
2023-03-27T08:32:58.852Z,60.64
2023-03-27T08:33:59.712Z,60.67
2023-03-27T08:34:58.815Z,60.51
2023-03-27T08:35:59.015Z,60.08
2023-03-27T08:36:58.759Z,60.12
2023-03-27T08:37:58.934Z,60.26
2023-03-27T08:38:59.754Z,60.66
2023-03-27T08:39:58.793Z,61.00
2023-03-27T08:40:58.718Z,60.38
2023-03-27T08:41:58.710Z,59.92
2023-03-27T08:42:58.668Z,59.38
2023-03-27T08:43:59.609Z,59.98
2023-03-27T08:44:58.686Z,60.46
2023-03-27T08:45:58.999Z,60.60
2023-03-27T08:46:58.655Z,60.00
2023-03-27T08:47:58.668Z,60.44
2023-03-27T08:48:59.602Z,61.14
2023-03-27T08:49:58.574Z,61.61
2023-03-27T08:50:58.567Z,62.08
2023-03-27T08:51:58.572Z,62.24
2023-03-27T08:52:58.585Z,62.22
2023-03-27T08:53:58.546Z,62.07
2023-03-27T08:54:59.436Z,62.20
2023-03-27T08:55:58.783Z,62.17
2023-03-27T08:56:58.499Z,62.08
2023-03-27T08:57:58.529Z,62.40
2023-03-27T08:58:58.529Z,62.10
2023-03-27T08:59:58.457Z,60.93
2023-03-27T09:00:59.408Z,60.14
2023-03-27T09:01:58.477Z,60.03
2023-03-27T09:02:58.536Z,60.11
2023-03-27T09:03:58.477Z,60.27
2023-03-27T09:04:58.400Z,60.67
2023-03-27T09:05:58.703Z,60.92
2023-03-27T09:06:59.278Z,60.90
2023-03-27T09:07:58.344Z,60.74
2023-03-27T09:08:58.360Z,59.77
2023-03-27T09:09:58.351Z,59.40
2023-03-27T09:10:58.301Z,60.13
2023-03-27T09:11:58.385Z,60.78
2023-03-27T09:12:59.227Z,60.83
2023-03-27T09:13:58.300Z,60.60
2023-03-27T09:14:58.295Z,60.68
2023-03-27T09:15:58.448Z,60.40
2023-03-27T09:16:58.272Z,60.76
2023-03-27T09:17:59.285Z,61.07
2023-03-27T09:18:58.229Z,61.20
2023-03-27T09:19:58.240Z,61.22
2023-03-27T09:20:58.181Z,60.89
2023-03-27T09:21:58.204Z,60.45
2023-03-27T09:22:59.138Z,61.02
2023-03-27T09:23:58.181Z,61.65
2023-03-27T09:24:58.169Z,62.27
2023-03-27T09:25:58.278Z,62.60
2023-03-27T09:27:06.803Z,61.66
2023-03-27T09:28:01.551Z,60.60
2023-03-27T09:28:58.135Z,60.67
2023-03-27T09:30:05.816Z,60.13
2023-03-27T09:30:59.571Z,59.33
2023-03-27T09:31:58.077Z,58.41
2023-03-27T09:32:58.065Z,57.51
2023-03-27T09:33:58.944Z,57.05
2023-03-27T09:34:58.002Z,57.70
2023-03-27T09:35:58.182Z,58.21
2023-03-27T09:36:58.037Z,58.58
2023-03-27T09:37:58.034Z,59.16
2023-03-27T09:38:57.973Z,59.31
2023-03-27T09:39:58.886Z,58.33
2023-03-27T09:40:57.913Z,57.40
2023-03-27T09:41:57.977Z,57.15
2023-03-27T09:42:57.916Z,58.36
2023-03-27T09:43:57.931Z,58.17
2023-03-27T09:44:58.847Z,57.73
2023-03-27T09:45:58.166Z,57.36
2023-03-27T09:46:57.969Z,57.05
2023-03-27T09:47:57.940Z,56.57
2023-03-27T09:48:57.814Z,56.32
2023-03-27T09:49:58.739Z,56.55
2023-03-27T09:50:57.924Z,56.19
2023-03-27T09:51:57.786Z,55.09
2023-03-27T09:52:57.829Z,54.22
2023-03-27T09:53:57.766Z,54.92
2023-03-27T09:54:58.706Z,55.21
2023-03-27T09:55:57.783Z,55.78
2023-03-27T09:56:57.769Z,56.75
2023-03-27T09:57:57.753Z,57.84
2023-03-27T09:58:57.730Z,58.77
2023-03-27T09:59:57.669Z,59.55
2023-03-27T10:00:58.825Z,60.07
2023-03-27T10:01:57.939Z,60.51
2023-03-27T10:02:57.718Z,61.02
2023-03-27T10:03:57.741Z,61.44
2023-03-27T10:04:57.639Z,61.61
2023-03-27T10:05:58.570Z,61.42
2023-03-27T10:06:57.593Z,61.01
2023-03-27T10:07:57.594Z,59.82
2023-03-27T10:08:57.601Z,60.12
2023-03-27T10:09:57.561Z,60.38
2023-03-27T10:10:57.817Z,60.58
2023-03-27T10:11:58.488Z,60.67
2023-03-27T10:12:57.518Z,60.63
2023-03-27T10:13:57.564Z,60.53
2023-03-27T10:14:57.514Z,60.59
2023-03-27T10:15:57.528Z,60.90
2023-03-27T10:16:58.417Z,61.24
2023-03-27T10:17:57.602Z,61.46
2023-03-27T10:18:57.480Z,61.34
2023-03-27T10:19:57.432Z,60.82
2023-03-27T10:20:57.616Z,60.34
2023-03-27T10:21:57.623Z,60.03
2023-03-27T10:22:59.296Z,59.78
2023-03-27T10:23:57.385Z,60.49
2023-03-27T10:24:57.390Z,61.23
2023-03-27T10:25:59.086Z,61.32
2023-03-27T10:26:57.383Z,59.91
2023-03-27T10:27:58.220Z,58.56
2023-03-27T10:28:58.276Z,57.13
2023-03-27T10:29:57.339Z,55.63
2023-03-27T10:30:57.393Z,54.62
2023-03-27T10:31:57.298Z,54.05
2023-03-27T10:32:57.323Z,54.95
2023-03-27T10:33:58.230Z,55.82
2023-03-27T10:34:57.251Z,56.72
2023-03-27T10:35:57.223Z,57.54
2023-03-27T10:36:57.293Z,58.40
2023-03-27T10:37:57.241Z,59.12
2023-03-27T10:38:57.190Z,59.71
2023-03-27T10:39:58.093Z,60.07
2023-03-27T10:40:57.323Z,60.11
2023-03-27T10:41:57.215Z,59.76
2023-03-27T10:42:57.112Z,58.43
2023-03-27T10:43:57.146Z,58.18
2023-03-27T10:44:57.105Z,57.65
2023-03-27T10:46:03.345Z,58.41
2023-03-27T10:46:57.173Z,58.98
2023-03-27T10:47:57.226Z,59.37
2023-03-27T10:48:57.066Z,59.70
2023-03-27T10:49:57.141Z,59.97
2023-03-27T10:50:58.264Z,59.18
2023-03-27T10:51:57.006Z,58.83
2023-03-27T10:52:56.998Z,56.79
2023-03-27T10:53:57.162Z,55.16
2023-03-27T10:54:57.074Z,53.77
2023-03-27T10:55:57.072Z,52.55
2023-03-27T10:56:57.931Z,52.54
2023-03-27T10:57:56.923Z,53.76
2023-03-27T10:58:56.978Z,54.81
2023-03-27T10:59:56.973Z,55.76
2023-03-27T11:00:57.073Z,56.34
2023-03-27T11:01:56.939Z,55.69
2023-03-27T11:02:57.818Z,55.93
2023-03-27T11:03:56.917Z,56.77
2023-03-27T11:04:56.848Z,57.46
2023-03-27T11:05:56.873Z,57.85
2023-03-27T11:06:57.686Z,57.40
2023-03-27T11:07:56.866Z,57.46
2023-03-27T11:08:57.727Z,55.82
2023-03-27T11:09:57.646Z,54.33
2023-03-27T11:10:56.916Z,54.69
2023-03-27T11:11:56.726Z,54.32
2023-03-27T11:12:56.750Z,54.03
2023-03-27T11:13:56.810Z,53.66
2023-03-27T11:14:57.626Z,53.03
2023-03-27T11:15:56.679Z,52.55
2023-03-27T11:16:57.609Z,52.04
2023-03-27T11:17:56.737Z,51.29
2023-03-27T11:18:57.541Z,50.39
2023-03-27T11:19:57.577Z,49.86
2023-03-27T11:20:56.906Z,50.05
2023-03-27T11:21:57.544Z,50.47
2023-03-27T11:22:56.634Z,50.91
2023-03-27T11:23:56.695Z,51.09
2023-03-27T11:24:57.515Z,52.16
2023-03-27T11:25:56.589Z,53.21
2023-03-27T11:26:56.545Z,54.14
2023-03-27T11:27:56.533Z,54.79
2023-03-27T11:28:56.596Z,54.56
2023-03-27T11:29:57.517Z,53.22
2023-03-27T11:30:56.764Z,52.21
2023-03-27T11:31:57.484Z,51.66
2023-03-27T11:32:56.586Z,52.15
2023-03-27T11:33:56.453Z,51.66
2023-03-27T11:34:57.385Z,51.39
2023-03-27T11:35:56.444Z,51.27
2023-03-27T11:36:56.420Z,51.05
2023-03-27T11:37:56.489Z,50.79
2023-03-27T11:38:56.435Z,50.57
2023-03-27T11:39:57.313Z,50.46
2023-03-27T11:40:56.904Z,50.37
2023-03-27T11:41:56.404Z,50.37
2023-03-27T11:42:57.090Z,50.20
2023-03-27T11:43:56.362Z,49.97
2023-03-27T11:44:56.302Z,49.91
2023-03-27T11:45:57.375Z,49.86
2023-03-27T11:46:56.317Z,49.88
2023-03-27T11:47:56.431Z,49.96
2023-03-27T11:48:56.254Z,49.80
2023-03-27T11:49:56.282Z,49.28
2023-03-27T11:50:56.436Z,48.57
2023-03-27T11:51:57.197Z,47.76
2023-03-27T11:52:56.231Z,46.97
2023-03-27T11:53:56.183Z,46.88
2023-03-27T11:54:56.200Z,46.62
2023-03-27T11:55:56.201Z,46.02
2023-03-27T11:56:56.375Z,45.77
2023-03-27T11:57:57.090Z,46.51
2023-03-27T11:58:56.144Z,48.68
2023-03-27T11:59:56.160Z,50.18
2023-03-27T12:00:56.236Z,50.47
2023-03-27T12:01:56.112Z,52.35
2023-03-27T12:02:57.139Z,54.08
2023-03-27T12:03:56.215Z,55.63
2023-03-27T12:04:56.062Z,57.09
2023-03-27T12:05:56.157Z,58.39
2023-03-27T12:06:57.023Z,59.57
2023-03-27T12:07:56.048Z,60.52
2023-03-27T12:08:56.940Z,61.23
2023-03-27T12:09:56.042Z,61.53
2023-03-27T12:10:56.183Z,61.37
2023-03-27T12:11:55.977Z,61.49
2023-03-27T12:12:55.949Z,61.81
2023-03-27T12:14:01.647Z,62.07
2023-03-27T12:14:58.383Z,61.97
2023-03-27T12:15:55.965Z,60.43
2023-03-27T12:16:55.983Z,58.53
2023-03-27T12:17:56.005Z,56.68
2023-03-27T12:19:03.832Z,55.29
2023-03-27T12:19:58.245Z,54.14
2023-03-27T12:20:56.844Z,53.31
2023-03-27T12:21:55.851Z,52.60
2023-03-27T12:22:55.819Z,51.96
2023-03-27T12:23:56.150Z,51.48
2023-03-27T12:24:59.745Z,51.11
2023-03-27T12:25:55.811Z,50.73
2023-03-27T12:26:56.746Z,50.37
2023-03-27T12:27:55.806Z,50.03
2023-03-27T12:28:55.759Z,49.77
2023-03-27T12:29:55.736Z,49.46
2023-03-27T12:30:55.929Z,49.11
2023-03-27T12:31:56.660Z,48.90
2023-03-27T12:32:56.701Z,48.71
2023-03-27T12:33:55.667Z,48.28
2023-03-27T12:34:55.714Z,47.65
2023-03-27T12:35:55.698Z,47.61
2023-03-27T12:36:55.661Z,47.23
2023-03-27T12:37:56.607Z,46.76
2023-03-27T12:38:55.623Z,47.13
2023-03-27T12:39:55.606Z,46.44
2023-03-27T12:40:55.842Z,46.83
2023-03-27T12:41:55.582Z,46.95
2023-03-27T12:42:56.572Z,48.19
2023-03-27T12:43:55.561Z,50.24
2023-03-27T12:44:56.135Z,52.07
2023-03-27T12:45:55.610Z,53.52
2023-03-27T12:46:55.541Z,54.66
2023-03-27T12:47:55.586Z,54.39
2023-03-27T12:48:56.453Z,52.28
2023-03-27T12:49:55.482Z,53.39
2023-03-27T12:50:55.652Z,54.79
2023-03-27T12:51:55.451Z,55.81